Pathein, Burma
Current Conditions -  °F | °C
As of 7:30 AM on Saturday 25 Oct 2014 (Local Time) from VYYY Reporting Station
Scattered Clouds Scattered Clouds  
Wind Chill: 27°   Ceiling: Unl
Heat Index: 30°   Visibility: 4mi
Dew Point: 24°   Wind: 3mph
Humidity: 84%   Direction: 80°E
Pressure: 29.91"   Gusts: NA
Location:  16.78°N, 94.73°E
Report Text: VYYY 250130Z 08003KT 7000 SCT018 FEW025CB 27/24 Q1013 NOSIG
Loading
Personal Weather Stations






























Interactive Weather Map
Tropical Storm Tracking
New forecast layout! Learn more

10-Day Weather Forecast

Advertisements
Track Severe Weather on mobile